Time;durP1;ratioP1;P1;durP2;ratioP2;P2;SDS_P1;SDS_P2;PMS_P1;PMS_P2;Temp;Humidity;BMP_temperature;BMP_pressure;BME280_temperature;BME280_humidity;BME280_pressure;Samples;Min_cycle;Max_cycle;Signal;HPM_P1;HPM_P2
2021/08/15 00:01:52;;;;;;;9.75;8.20;;;18.80;79.90;;;;;;5033987;28;20030;-82
2021/08/15 00:04:18;;;;;;;10.40;8.07;;;18.80;80.60;;;;;;5032107;28;20052;-83
2021/08/15 00:06:44;;;;;;;11.85;8.27;;;18.70;80.30;;;;;;5034119;28;20029;-82
2021/08/15 00:09:09;;;;;;;10.85;7.88;;;18.70;80.40;;;;;;5034299;28;20033;-80
2021/08/15 00:11:35;;;;;;;14.88;8.88;;;18.70;81.10;;;;;;5035469;28;20113;-80
2021/08/15 00:14:01;;;;;;;10.48;6.93;;;18.60;81.70;;;;;;5035035;28;20487;-80
2021/08/15 00:16:27;;;;;;;12.43;7.38;;;18.60;81.30;;;;;;5034477;28;20049;-83
2021/08/15 00:18:53;;;;;;;11.77;8.55;;;18.60;81.30;;;;;;5034459;28;20537;-82
2021/08/15 00:21:19;;;;;;;14.55;8.32;;;18.60;81.30;;;;;;5016265;28;20025;-82
2021/08/15 00:23:45;;;;;;;12.32;8.05;;;18.50;81.30;;;;;;5034575;28;20029;-82
2021/08/15 00:26:11;;;;;;;11.55;7.68;;;18.50;81.60;;;;;;5032313;28;20025;-82
2021/08/15 00:28:38;;;;;;;13.02;8.15;;;18.50;82.30;;;;;;5024314;28;20104;-82
2021/08/15 00:31:04;;;;;;;14.95;8.52;;;18.40;82.70;;;;;;5034101;28;20033;-82
2021/08/15 00:33:30;;;;;;;12.93;8.02;;;18.40;83.30;;;;;;5034337;28;20028;-82
2021/08/15 00:35:56;;;;;;;12.27;8.77;;;18.30;84.00;;;;;;5033831;28;20033;-82
2021/08/15 00:38:22;;;;;;;13.30;8.18;;;18.30;84.30;;;;;;5016164;28;20021;-82
2021/08/15 00:40:48;;;;;;;14.40;9.10;;;18.20;84.50;;;;;;5034032;28;20029;-82
2021/08/15 00:43:13;;;;;;;13.05;8.80;;;18.20;84.90;;;;;;5033864;28;20498;-82
2021/08/15 00:45:39;;;;;;;12.27;8.55;;;18.10;85.20;;;;;;5033672;28;20072;-83
2021/08/15 00:48:09;;;;;;;14.88;8.50;;;18.10;84.90;;;;;;5033805;28;20466;-83
2021/08/15 00:50:36;;;;;;;15.25;8.73;;;18.10;85.20;;;;;;5030201;28;20434;-83
2021/08/15 00:53:02;;;;;;;14.57;8.40;;;18.10;85.40;;;;;;5025946;28;20025;-82
2021/08/15 00:55:28;;;;;;;11.68;8.23;;;18.00;84.90;;;;;;5028864;28;20030;-83
2021/08/15 00:57:55;;;;;;;13.23;8.77;;;18.00;85.30;;;;;;5033798;28;20352;-83
2021/08/15 01:00:20;;;;;;;12.60;8.85;;;18.00;84.90;;;;;;5033153;28;20017;-82
2021/08/15 01:02:47;;;;;;;14.07;8.68;;;18.00;84.70;;;;;;5033551;28;20495;-83
2021/08/15 01:05:14;;;;;;;11.07;9.25;;;18.00;84.80;;;;;;5033372;28;20032;-83
2021/08/15 01:07:46;;;;;;;12.00;8.05;;;18.00;84.70;;;;;;5033199;28;20104;-83
2021/08/15 01:10:14;;;;;;;16.95;9.75;;;18.00;84.60;;;;;;5032274;28;20029;-84
2021/08/15 01:12:40;;;;;;;14.27;9.07;;;18.00;84.80;;;;;;5006672;28;20471;-82
2021/08/15 01:15:08;;;;;;;10.75;8.80;;;18.00;84.70;;;;;;5032447;28;20048;-83
2021/08/15 01:17:34;;;;;;;17.17;9.60;;;18.00;84.70;;;;;;5023002;28;20047;-82
2021/08/15 01:20:00;;;;;;;10.45;8.35;;;18.00;84.80;;;;;;5026956;28;20105;-83
2021/08/15 01:22:27;;;;;;;15.10;9.85;;;18.00;85.40;;;;;;5030104;28;20032;-82
2021/08/15 01:24:58;;;;;;;11.52;9.40;;;17.90;85.10;;;;;;5027092;28;20379;-84
2021/08/15 01:27:25;;;;;;;17.08;9.43;;;18.00;85.40;;;;;;5032717;28;20080;-82
2021/08/15 01:29:52;;;;;;;12.85;9.23;;;18.00;85.60;;;;;;5032897;28;20037;-82
2021/08/15 01:32:20;;;;;;;14.70;10.38;;;;;;;;;;5033151;28;20080;-82
2021/08/15 01:34:46;;;;;;;12.48;9.40;;;17.90;85.70;;;;;;5025494;28;20032;-84
2021/08/15 01:37:12;;;;;;;11.40;10.15;;;17.90;85.90;;;;;;5034291;28;20018;-83
2021/08/15 01:39:46;;;;;;;12.38;9.13;;;17.90;85.90;;;;;;5021728;28;20029;-80
2021/08/15 01:42:12;;;;;;;15.00;9.95;;;17.90;85.90;;;;;;5031650;28;20022;-82
2021/08/15 01:44:38;;;;;;;14.38;10.30;;;17.90;86.10;;;;;;5034300;28;20079;-81
2021/08/15 01:47:04;;;;;;;15.77;9.45;;;17.90;86.20;;;;;;5033160;28;20467;-81
2021/08/15 01:49:29;;;;;;;18.33;10.40;;;17.90;86.30;;;;;;5033163;28;20038;-81
2021/08/15 01:51:55;;;;;;;13.70;10.43;;;17.90;86.40;;;;;;5032863;28;20018;-82
2021/08/15 01:54:21;;;;;;;11.95;9.60;;;17.80;86.40;;;;;;5032856;28;20044;-82
2021/08/15 01:56:47;;;;;;;14.32;10.50;;;17.80;86.50;;;;;;5015308;28;20057;-81
2021/08/15 01:59:13;;;;;;;11.77;9.60;;;17.80;86.50;;;;;;5032992;28;20037;-80
2021/08/15 02:01:39;;;;;;;12.90;9.98;;;17.80;86.50;;;;;;5033314;28;20033;-81
2021/08/15 02:04:04;;;;;;;14.45;9.57;;;17.70;86.70;;;;;;5032166;28;20029;-81
2021/08/15 02:06:30;;;;;;;16.30;9.85;;;17.70;87.00;;;;;;5032609;28;20028;-82
2021/08/15 02:08:56;;;;;;;13.88;10.13;;;17.60;87.00;;;;;;5032320;28;20026;-83
2021/08/15 02:11:22;;;;;;;17.92;10.18;;;17.60;87.30;;;;;;5032317;28;20026;-82
2021/08/15 02:13:48;;;;;;;12.80;9.55;;;17.60;87.50;;;;;;5028102;28;20040;-82
2021/08/15 02:16:15;;;;;;;15.43;10.07;;;17.60;87.90;;;;;;5028779;28;20554;-83
2021/08/15 02:18:41;;;;;;;14.53;9.90;;;17.60;88.20;;;;;;5032786;28;20107;-81
2021/08/15 02:21:07;;;;;;;13.98;10.85;;;17.60;88.20;;;;;;5032050;28;20026;-81
2021/08/15 02:23:33;;;;;;;14.05;9.55;;;17.60;88.20;;;;;;5038943;28;20049;-82
2021/08/15 02:25:59;;;;;;;14.25;9.77;;;17.60;88.30;;;;;;5038970;28;20068;-82
2021/08/15 02:28:25;;;;;;;13.38;9.52;;;17.60;87.90;;;;;;5039136;28;20021;-81
2021/08/15 02:30:51;;;;;;;14.20;9.48;;;17.60;87.80;;;;;;5038719;28;20097;-82
2021/08/15 02:33:17;;;;;;;15.32;8.90;;;17.70;88.40;;;;;;5038729;28;20018;-82
2021/08/15 02:35:43;;;;;;;15.95;9.82;;;17.70;87.70;;;;;;5038695;28;20048;-82
2021/08/15 02:38:09;;;;;;;11.82;9.43;;;17.70;87.80;;;;;;5038736;28;20018;-82
2021/08/15 02:40:35;;;;;;;12.98;9.95;;;17.80;88.00;;;;;;5038949;28;20036;-83
2021/08/15 02:43:00;;;;;;;13.02;9.35;;;17.80;87.80;;;;;;5038875;28;20050;-82
2021/08/15 02:45:27;;;;;;;12.32;8.82;;;17.90;87.80;;;;;;5038744;28;20067;-82
2021/08/15 02:47:53;;;;;;;13.55;9.07;;;18.00;87.30;;;;;;5039009;28;20048;-82
2021/08/15 02:50:20;;;;;;;13.93;8.65;;;18.00;86.40;;;;;;5020823;28;20124;-80
2021/08/15 02:52:46;;;;;;;13.00;8.97;;;18.10;86.00;;;;;;5038628;28;20021;-81
2021/08/15 02:55:13;;;;;;;13.07;9.02;;;18.10;85.80;;;;;;5038475;28;20318;-82
2021/08/15 02:57:39;;;;;;;10.23;8.60;;;18.10;85.80;;;;;;5038461;28;20017;-81
2021/08/15 03:00:06;;;;;;;11.23;8.38;;;18.20;85.20;;;;;;5038942;28;20083;-83
2021/08/15 03:02:32;;;;;;;13.52;8.45;;;18.10;85.30;;;;;;5038370;28;20014;-80
2021/08/15 03:04:58;;;;;;;10.48;8.68;;;18.10;85.50;;;;;;5038584;28;20053;-80
2021/08/15 03:07:26;;;;;;;11.90;8.80;;;18.20;85.20;;;;;;5038304;28;20025;-79
2021/08/15 03:09:51;;;;;;;;;;;18.20;85.10;;;;;;5038977;28;20095;-81
2021/08/15 03:12:17;;;;;;;14.75;8.30;;;18.20;84.80;;;;;;5035748;28;19910;-82
2021/08/15 03:14:43;;;;;;;12.55;8.82;;;18.30;85.20;;;;;;5039094;28;20045;-81
2021/08/15 03:17:09;;;;;;;13.00;9.23;;;18.30;85.00;;;;;;5038621;28;20111;-82
2021/08/15 03:19:36;;;;;;;13.63;8.25;;;18.30;84.50;;;;;;5038402;28;20040;-81
2021/08/15 03:22:05;;;;;;;13.57;9.05;;;18.30;84.70;;;;;;5038542;28;20021;-81
2021/08/15 03:24:31;;;;;;;9.90;8.63;;;18.30;84.60;;;;;;5038435;28;20021;-82
2021/08/15 03:26:57;;;;;;;12.32;8.73;;;18.30;84.80;;;;;;5038549;28;20379;-83
2021/08/15 03:29:23;;;;;;;13.18;8.32;;;18.30;84.90;;;;;;5038434;28;20044;-81
2021/08/15 03:31:49;;;;;;;13.68;8.15;;;18.40;85.10;;;;;;5038921;28;20100;-81
2021/08/15 03:34:19;;;;;;;12.15;8.07;;;18.50;84.30;;;;;;5037379;28;20028;-82
2021/08/15 03:36:47;;;;;;;9.50;8.00;;;18.60;83.60;;;;;;5035011;28;20018;-82
2021/08/15 03:39:14;;;;;;;12.02;8.30;;;18.60;83.30;;;;;;5035138;28;20470;-83
2021/08/15 03:41:40;;;;;;;15.67;8.93;;;18.70;83.10;;;;;;5034892;28;20063;-82
2021/08/15 03:44:06;;;;;;;10.60;7.75;;;18.70;83.40;;;;;;5017222;28;20053;-81
2021/08/15 03:46:32;;;;;;;14.15;8.07;;;18.80;82.90;;;;;;5035077;28;20064;-81
2021/08/15 03:48:58;;;;;;;11.18;8.10;;;18.80;83.00;;;;;;5035076;28;20083;-82
2021/08/15 03:51:24;;;;;;;9.85;7.00;;;18.80;83.00;;;;;;5034908;28;20386;-83
2021/08/15 03:53:49;;;;;;;10.07;7.47;;;18.80;82.40;;;;;;5034851;28;20064;-82
2021/08/15 03:56:15;;;;;;;12.48;7.93;;;18.90;82.10;;;;;;5036816;28;20028;-82
2021/08/15 03:58:41;;;;;;;14.05;7.53;;;19.00;82.50;;;;;;5036235;28;20033;-82
2021/08/15 04:01:07;;;;;;;8.38;6.90;;;19.00;81.70;;;;;;5038652;28;20021;-83
2021/08/15 04:03:33;;;;;;;12.70;7.50;;;19.10;81.80;;;;;;5035479;28;20026;-83
2021/08/15 04:06:06;;;;;;;9.23;7.07;;;19.20;81.20;;;;;;5034747;28;20355;-83
2021/08/15 04:08:32;;;;;;;10.18;6.43;;;19.30;80.90;;;;;;5034857;28;20120;-79
2021/08/15 04:10:58;;;;;;;9.50;6.68;;;19.40;80.20;;;;;;5034474;28;20148;-81
2021/08/15 04:13:24;;;;;;;9.90;7.43;;;19.50;79.50;;;;;;5034381;28;20108;-81
2021/08/15 04:15:50;;;;;;;11.82;7.25;;;19.50;79.90;;;;;;5034104;28;20411;-82
2021/08/15 04:18:16;;;;;;;10.43;6.88;;;19.70;80.10;;;;;;5034351;28;20021;-81
2021/08/15 04:20:42;;;;;;;9.30;6.07;;;19.80;79.00;;;;;;5034597;28;20095;-82
2021/08/15 04:23:08;;;;;;;10.25;6.72;;;19.90;78.80;;;;;;5033561;28;20499;-84
2021/08/15 04:25:34;;;;;;;8.75;6.38;;;20.00;78.60;;;;;;5034491;28;20056;-81
2021/08/15 04:28:00;;;;;;;10.65;6.15;;;20.10;78.40;;;;;;5034738;28;20112;-81
2021/08/15 04:30:25;;;;;;;8.00;6.00;;;20.30;77.40;;;;;;5036214;28;20053;-84
2021/08/15 04:32:51;;;;;;;15.10;6.60;;;20.40;77.10;;;;;;5035832;28;20022;-82
2021/08/15 04:35:17;;;;;;;10.50;6.25;;;20.50;77.00;;;;;;5034133;28;20029;-81
2021/08/15 04:37:43;;;;;;;8.13;5.50;;;20.50;76.40;;;;;;5034330;28;20025;-82
2021/08/15 04:40:09;;;;;;;5.65;5.03;;;20.70;75.90;;;;;;5033951;28;20018;-81
2021/08/15 04:42:35;;;;;;;10.50;5.63;;;20.80;74.80;;;;;;5034056;28;20548;-81
2021/08/15 04:45:01;;;;;;;8.13;5.43;;;20.90;74.90;;;;;;5032491;28;20029;-82
2021/08/15 04:47:27;;;;;;;9.90;5.05;;;21.10;74.40;;;;;;5033789;28;20025;-80
2021/08/15 04:49:53;;;;;;;7.55;4.80;;;21.50;72.70;;;;;;5033530;28;20045;-82
2021/08/15 04:52:18;;;;;;;5.60;4.82;;;22.00;70.90;;;;;;5033637;28;20028;-81
2021/08/15 04:54:44;;;;;;;8.40;4.65;;;22.70;67.60;;;;;;5033848;28;20505;-84
2021/08/15 04:57:10;;;;;;;4.95;4.20;;;23.10;65.10;;;;;;5033616;28;20026;-81
2021/08/15 04:59:36;;;;;;;6.70;4.38;;;23.60;64.40;;;;;;5026749;28;20529;-84
2021/08/15 05:02:03;;;;;;;8.43;4.80;;;24.00;61.70;;;;;;5010675;28;20120;-84
2021/08/15 05:04:29;;;;;;;6.03;4.30;;;24.00;61.30;;;;;;5035635;28;20017;-82
2021/08/15 05:06:55;;;;;;;5.22;4.22;;;24.40;60.30;;;;;;5036493;28;20030;-84
2021/08/15 05:09:21;;;;;;;7.03;3.72;;;24.90;59.30;;;;;;5034720;28;20064;-82
2021/08/15 05:11:48;;;;;;;5.40;4.00;;;25.60;57.10;;;;;;5035610;28;20026;-83
2021/08/15 05:14:14;;;;;;;;;;;26.20;55.00;;;;;;5034406;28;20033;-83
2021/08/15 05:16:40;;;;;;;6.03;4.17;;;26.50;57.00;;;;;;5033622;28;20376;-82
2021/08/15 05:19:06;;;;;;;6.88;4.03;;;;;;;;;;5033203;28;20040;-82
2021/08/15 05:21:32;;;;;;;4.97;3.28;;;26.50;54.00;;;;;;5033107;28;20135;-82
2021/08/15 05:23:58;;;;;;;6.75;3.88;;;27.20;52.10;;;;;;5033390;28;20029;-83
2021/08/15 05:26:24;;;;;;;3.95;3.17;;;27.30;51.60;;;;;;5032961;28;20402;-81
2021/08/15 05:28:50;;;;;;;7.13;3.90;;;26.80;51.20;;;;;;5015390;28;20128;-82
2021/08/15 05:31:16;;;;;;;5.72;3.75;;;26.60;52.10;;;;;;5032956;28;20087;-83
2021/08/15 05:33:42;;;;;;;6.60;4.10;;;26.90;51.50;;;;;;5033271;28;20021;-83
2021/08/15 05:36:08;;;;;;;6.72;3.70;;;27.00;50.90;;;;;;5033183;28;20517;-82
2021/08/15 05:38:34;;;;;;;5.55;3.85;;;27.10;50.90;;;;;;5033047;28;20174;-84
2021/08/15 05:41:00;;;;;;;7.53;4.13;;;27.70;50.40;;;;;;5033206;28;20029;-85
2021/08/15 05:43:26;;;;;;;6.82;4.07;;;28.50;49.00;;;;;;5033517;28;20025;-84
2021/08/15 05:45:52;;;;;;;4.80;3.50;;;28.60;47.40;;;;;;5032996;28;20021;-82
2021/08/15 05:48:18;;;;;;;5.33;4.77;;;28.20;47.60;;;;;;5033061;28;20013;-83
2021/08/15 05:50:44;;;;;;;6.17;3.57;;;;;;;;;;5033137;28;20038;-82
2021/08/15 05:53:10;;;;;;;9.10;4.37;;;;;;;;;;5033027;28;20057;-82
2021/08/15 05:55:36;;;;;;;12.73;4.37;;;28.50;48.20;;;;;;5019109;28;20505;-83
2021/08/15 05:58:02;;;;;;;6.70;4.00;;;30.10;45.20;;;;;;5032791;28;20013;-83
2021/08/15 06:00:28;;;;;;;6.55;4.03;;;31.10;44.20;;;;;;5032886;28;20026;-83
2021/08/15 06:02:54;;;;;;;5.43;4.43;;;31.90;42.80;;;;;;5032871;28;20478;-81
2021/08/15 06:05:20;;;;;;;6.23;4.10;;;31.70;41.90;;;;;;5033173;28;20040;-81
2021/08/15 06:07:46;;;;;;;7.00;4.30;;;31.50;42.20;;;;;;5033732;28;20013;-83
2021/08/15 06:10:12;;;;;;;6.30;4.27;;;32.20;41.90;;;;;;5014896;28;20026;-83
2021/08/15 06:12:39;;;;;;;4.77;3.97;;;33.40;41.00;;;;;;5032987;28;20024;-82
2021/08/15 06:15:12;;;;;;;5.78;4.18;;;33.80;39.40;;;;;;5032305;28;20049;-82
2021/08/15 06:17:39;;;;;;;6.40;4.00;;;33.90;38.70;;;;;;5029067;28;20029;-82
2021/08/15 06:20:05;;;;;;;;;;;33.30;39.10;;;;;;5032972;28;20493;-82
2021/08/15 06:22:30;;;;;;;7.80;4.55;;;32.90;40.40;;;;;;5036470;28;19911;-81
2021/08/15 06:24:56;;;;;;;6.03;3.60;;;33.40;39.10;;;;;;5032765;28;20022;-82
2021/08/15 06:27:22;;;;;;;6.73;4.40;;;33.60;38.30;;;;;;5036382;28;20033;-83
2021/08/15 06:29:48;;;;;;;5.33;3.67;;;33.90;38.60;;;;;;5032592;28;20065;-82
2021/08/15 06:32:14;;;;;;;7.73;4.23;;;33.80;38.10;;;;;;5032391;28;20592;-83
2021/08/15 06:34:40;;;;;;;6.83;4.27;;;33.90;38.30;;;;;;5032130;28;20033;-82
2021/08/15 06:37:06;;;;;;;6.17;4.03;;;34.40;38.00;;;;;;5032846;28;20518;-85
2021/08/15 06:39:32;;;;;;;6.47;4.15;;;36.20;36.90;;;;;;5032781;28;20119;-85
2021/08/15 06:41:57;;;;;;;5.82;3.75;;;36.50;35.60;;;;;;5032933;28;20101;-84
2021/08/15 06:44:23;;;;;;;9.47;4.17;;;37.00;34.40;;;;;;5032639;28;20029;-83
2021/08/15 06:46:49;;;;;;;6.97;4.03;;;35.80;35.00;;;;;;5032287;28;20474;-84
2021/08/15 06:49:15;;;;;;;5.27;3.30;;;34.70;36.90;;;;;;5032437;28;20049;-84
2021/08/15 06:51:41;;;;;;;5.53;3.88;;;34.60;36.50;;;;;;5032443;28;20029;-83
2021/08/15 06:54:07;;;;;;;7.10;3.57;;;34.60;37.20;;;;;;5032317;28;20022;-83
2021/08/15 06:56:33;;;;;;;4.63;4.05;;;34.80;37.00;;;;;;5032583;28;20294;-84
2021/08/15 06:58:58;;;;;;;6.20;3.63;;;34.90;36.60;;;;;;5032247;28;20033;-83
2021/08/15 07:01:25;;;;;;;6.20;3.90;;;35.00;36.80;;;;;;5032229;28;20908;-85
2021/08/15 07:03:50;;;;;;;5.32;4.00;;;35.50;36.20;;;;;;5032042;28;20044;-82
2021/08/15 07:06:16;;;;;;;13.05;5.05;;;36.10;35.60;;;;;;5033472;28;20363;-82
2021/08/15 07:08:42;;;;;;;7.15;4.00;;;36.30;35.10;;;;;;5028386;28;20057;-83
2021/08/15 07:11:08;;;;;;;6.85;4.47;;;36.40;34.80;;;;;;5035529;28;20064;-83
2021/08/15 07:13:34;;;;;;;5.63;4.32;;;36.00;34.80;;;;;;5008395;28;20060;-82
2021/08/15 07:16:02;;;;;;;6.70;4.05;;;36.50;34.70;;;;;;5032665;28;20072;-84
2021/08/15 07:18:29;;;;;;;9.02;4.13;;;36.10;34.80;;;;;;5035856;28;20459;-84
2021/08/15 07:20:58;;;;;;;6.18;3.75;;;36.00;34.80;;;;;;5005454;28;20030;-85
2021/08/15 07:23:24;;;;;;;5.50;4.00;;;36.50;34.90;;;;;;5035951;28;20022;-81
2021/08/15 07:25:50;;;;;;;6.95;4.28;;;37.50;34.20;;;;;;5035877;28;20031;-82
2021/08/15 07:28:16;;;;;;;6.68;4.03;;;37.50;33.50;;;;;;5035329;28;20025;-82
2021/08/15 07:30:42;;;;;;;4.82;3.63;;;37.70;33.70;;;;;;5035769;28;20060;-82
2021/08/15 07:33:08;;;;;;;8.63;4.47;;;37.60;32.70;;;;;;5035792;28;20036;-84
2021/08/15 07:35:38;;;;;;;5.13;4.30;;;37.10;33.30;;;;;;5035557;28;20482;-81
2021/08/15 07:38:06;;;;;;;7.95;3.50;;;37.50;33.60;;;;;;5017380;28;20037;-84
2021/08/15 07:40:33;;;;;;;5.85;3.92;;;38.00;32.90;;;;;;5035838;28;20104;-83
2021/08/15 07:42:58;;;;;;;5.75;4.40;;;38.80;32.80;;;;;;5016813;28;20398;-83
2021/08/15 07:45:27;;;;;;;6.25;3.95;;;38.40;32.40;;;;;;5025852;28;20041;-81
2021/08/15 07:47:53;;;;;;;12.48;5.00;;;39.20;32.60;;;;;;5034670;28;20442;-83
2021/08/15 07:50:20;;;;;;;9.88;4.28;;;39.90;31.50;;;;;;5032791;28;20400;-83
2021/08/15 07:52:47;;;;;;;5.57;3.80;;;39.20;31.20;;;;;;5034916;28;20144;-84
2021/08/15 07:55:13;;;;;;;4.78;3.20;;;37.50;32.40;;;;;;5020880;28;20030;-81
2021/08/15 07:57:39;;;;;;;8.55;5.65;;;36.60;33.20;;;;;;5023143;28;20112;-81
2021/08/15 08:00:07;;;;;;;4.93;3.92;;;36.00;34.50;;;;;;5035590;28;20123;-81
2021/08/15 08:02:34;;;;;;;5.90;3.88;;;36.30;33.60;;;;;;5030969;28;20592;-82
2021/08/15 08:05:00;;;;;;;5.47;4.07;;;36.30;33.20;;;;;;5025067;28;20037;-81
2021/08/15 08:07:26;;;;;;;5.60;3.65;;;35.70;34.00;;;;;;5030399;28;20030;-81
2021/08/15 08:09:53;;;;;;;4.20;3.63;;;35.90;34.20;;;;;;5034180;28;20033;-83
2021/08/15 08:12:20;;;;;;;4.53;3.67;;;35.60;34.10;;;;;;5018822;28;20116;-82
2021/08/15 08:14:46;;;;;;;5.90;3.65;;;35.20;34.00;;;;;;5031599;28;20087;-82
2021/08/15 08:17:13;;;;;;;7.30;3.58;;;35.20;34.80;;;;;;5034760;28;20444;-84
2021/08/15 08:19:41;;;;;;;6.95;4.05;;;35.40;34.70;;;;;;5033922;28;20028;-82
2021/08/15 08:22:06;;;;;;;6.18;3.72;;;36.10;34.20;;;;;;5036181;28;20092;-87
2021/08/15 08:24:33;;;;;;;5.05;3.63;;;36.60;33.80;;;;;;5036136;28;20053;-86
2021/08/15 08:26:59;;;;;;;5.15;3.20;;;36.10;33.60;;;;;;5036064;28;20026;-84
2021/08/15 08:29:25;;;;;;;7.07;4.13;;;35.50;34.00;;;;;;5034878;28;20029;-82
2021/08/15 08:31:51;;;;;;;4.60;3.97;;;34.80;34.70;;;;;;5029827;28;20037;-84
2021/08/15 08:34:17;;;;;;;7.93;3.80;;;35.00;35.00;;;;;;5035246;28;20018;-85
2021/08/15 08:36:43;;;;;;;8.60;3.70;;;36.50;34.10;;;;;;5026296;28;20028;-85
2021/08/15 08:39:09;;;;;;;6.13;3.60;;;36.70;32.80;;;;;;5045585;28;20025;-86
2021/08/15 08:41:37;;;;;;;;;;;37.00;32.60;;;;;;5039438;28;20076;-86
2021/08/15 08:44:03;;;;;;;5.95;3.13;;;37.70;33.10;;;;;;5036785;28;19909;-86
2021/08/15 08:46:29;;;;;;;;;;;38.90;31.70;;;;;;5036732;28;20022;-87
2021/08/15 08:48:55;;;;;;;6.43;4.03;;;39.30;31.60;;;;;;5035860;28;20429;-87
2021/08/15 08:51:22;;;;;;;9.50;3.75;;;39.90;30.60;;;;;;5036460;28;20052;-88
2021/08/15 08:53:50;;;;;;;7.15;3.47;;;40.40;30.00;;;;;;5037268;28;20036;-90
2021/08/15 08:56:17;;;;;;;8.10;3.92;;;40.80;29.80;;;;;;5036221;28;20033;-93
2021/08/15 08:58:44;;;;;;;7.05;3.35;;;39.60;29.70;;;;;;5039696;28;20032;-85
2021/08/15 09:01:13;;;;;;;6.63;4.03;;;39.40;30.10;;;;;;5035050;28;20021;-82
2021/08/15 09:03:46;;;;;;;5.15;3.95;;;39.90;30.10;;;;;;5034010;28;20039;-84
2021/08/15 09:06:20;;;;;;;5.38;3.45;;;40.20;30.00;;;;;;5032347;28;20489;-81
2021/08/15 09:08:46;;;;;;;4.97;3.10;;;39.50;30.40;;;;;;5034324;28;20036;-83
2021/08/15 09:11:20;;;;;;;4.05;3.03;;;39.70;30.40;;;;;;5033698;28;20033;-84
2021/08/15 09:14:34;;;;;;;7.55;4.00;;;39.90;30.00;;;;;;5033875;28;20463;-83
2021/08/15 09:17:03;;;;;;;7.33;4.20;;;40.80;30.50;;;;;;4987048;28;20054;-84
2021/08/15 09:19:33;;;;;;;8.50;3.45;;;41.70;29.60;;;;;;4989761;28;20041;-84
2021/08/15 09:22:13;;;;;;;6.70;3.35;;;41.90;28.60;;;;;;4991770;28;20023;-84
2021/08/15 09:24:57;;;;;;;6.88;3.72;;;42.40;28.90;;;;;;4985275;28;20029;-87
2021/08/15 09:27:42;;;;;;;5.88;3.55;;;41.70;28.60;;;;;;4992613;28;20091;-86
2021/08/15 09:30:14;;;;;;;5.63;4.03;;;41.60;29.30;;;;;;4983027;28;20120;-87
2021/08/15 09:33:09;;;;;;;8.80;4.05;;;41.70;28.70;;;;;;4992960;28;20093;-87
2021/08/15 09:35:35;;;;;;;4.10;3.60;;;40.70;29.40;;;;;;4985065;28;20042;-85
2021/08/15 09:38:05;;;;;;;;;;;39.40;29.90;;;;;;4998928;28;20490;-86
2021/08/15 09:40:32;;;;;;;7.28;3.75;;;38.70;30.70;;;;;;5000622;28;20362;-86
2021/08/15 09:43:00;;;;;;;5.95;3.95;;;39.30;30.70;;;;;;5001101;28;20451;-87
2021/08/15 09:45:47;;;;;;;7.68;3.72;;;38.40;30.80;;;;;;4996253;28;20126;-85
2021/08/15 09:48:40;;;;;;;3.58;3.22;;;38.90;31.20;;;;;;4994331;28;20052;-85
2021/08/15 09:51:19;;;;;;;5.95;3.45;;;38.40;31.20;;;;;;4986388;28;20038;-87
2021/08/15 09:53:53;;;;;;;5.18;3.67;;;38.20;31.40;;;;;;4995745;28;20030;-86
2021/08/15 09:56:37;;;;;;;6.88;3.53;;;38.90;31.30;;;;;;4995386;28;20361;-84
2021/08/15 09:59:23;;;;;;;4.18;3.75;;;40.00;30.80;;;;;;5001969;28;20542;-85
2021/08/15 10:01:54;;;;;;;8.80;3.33;;;39.60;30.00;;;;;;4997203;28;20026;-85
2021/08/15 10:04:21;;;;;;;7.35;4.28;;;38.90;30.60;;;;;;4997937;28;20111;-85
2021/08/15 10:06:51;;;;;;;5.90;3.88;;;39.70;30.60;;;;;;4998462;28;20042;-85
2021/08/15 10:09:25;;;;;;;7.80;4.15;;;40.00;29.80;;;;;;4996203;28;20044;-86
2021/08/15 10:11:51;;;;;;;5.18;3.97;;;39.40;30.30;;;;;;5001792;28;20014;-85
2021/08/15 10:14:18;;;;;;;5.68;3.15;;;39.30;30.40;;;;;;5000380;28;20439;-84
2021/08/15 10:17:04;;;;;;;4.85;3.17;;;39.40;30.50;;;;;;5035746;28;20029;-86
2021/08/15 10:19:37;;;;;;;5.18;3.80;;;39.70;30.10;;;;;;5016512;28;20052;-87
2021/08/15 10:22:04;;;;;;;4.93;3.90;;;40.40;30.10;;;;;;5034571;28;20030;-87
2021/08/15 10:24:48;;;;;;;5.10;3.67;;;41.00;29.90;;;;;;5033156;28;20022;-86
2021/08/15 10:27:41;;;;;;;7.90;3.90;;;41.40;29.80;;;;;;5033361;28;20038;-86
2021/08/15 10:30:30;;;;;;;6.75;3.80;;;41.20;29.60;;;;;;5020911;28;20542;-86
2021/08/15 10:32:56;;;;;;;6.47;3.55;;;38.80;30.50;;;;;;5021856;28;20042;-85
2021/08/15 10:35:32;;;;;;;8.40;4.28;;;37.20;32.20;;;;;;5033867;28;20038;-87
2021/08/15 10:37:58;;;;;;;8.60;3.55;;;35.60;33.60;;;;;;5032944;28;20394;-85
2021/08/15 10:40:42;;;;;;;5.67;4.17;;;34.00;35.60;;;;;;5032886;28;20013;-83
2021/08/15 10:43:21;;;;;;;9.45;4.68;;;32.80;37.20;;;;;;5035952;28;20317;-86
2021/08/15 10:46:09;;;;;;;8.15;4.72;;;32.00;38.80;;;;;;5037969;28;20029;-85
2021/08/15 10:49:05;;;;;;;5.82;4.43;;;31.30;39.40;;;;;;5036677;28;20013;-86
2021/08/15 10:51:49;;;;;;;7.63;4.88;;;30.70;40.00;;;;;;5039448;28;20135;-84
2021/08/15 10:54:27;;;;;;;6.90;5.15;;;30.10;41.60;;;;;;5025460;28;20551;-85
2021/08/15 10:56:55;;;;;;;5.55;4.65;;;29.80;42.10;;;;;;5036833;28;20040;-86
2021/08/15 10:59:36;;;;;;;5.28;4.78;;;29.60;42.90;;;;;;5036555;28;20024;-85
2021/08/15 11:02:08;;;;;;;10.80;5.32;;;29.30;42.80;;;;;;5037603;28;20030;-86
2021/08/15 11:04:34;;;;;;;8.85;5.25;;;29.10;44.20;;;;;;5007329;28;20021;-85
2021/08/15 11:07:01;;;;;;;7.37;4.77;;;29.00;44.30;;;;;;5039436;28;20022;-84
2021/08/15 11:09:56;;;;;;;6.50;5.03;;;28.90;44.70;;;;;;5036555;28;20037;-85
2021/08/15 11:12:22;;;;;;;8.40;4.10;;;28.80;44.50;;;;;;5036032;28;20383;-85
2021/08/15 11:15:00;;;;;;;7.43;5.35;;;28.80;45.40;;;;;;5036112;28;20521;-85
2021/08/15 11:17:27;;;;;;;6.60;4.60;;;28.70;45.40;;;;;;5036141;28;20026;-85
2021/08/15 11:19:54;;;;;;;5.22;4.72;;;28.40;45.80;;;;;;5036582;28;20386;-85
2021/08/15 11:22:20;;;;;;;8.18;4.47;;;28.50;46.60;;;;;;5036568;28;20475;-86
2021/08/15 11:24:48;;;;;;;5.47;4.65;;;28.60;45.90;;;;;;5036165;28;20055;-86
2021/08/15 11:27:18;;;;;;;6.80;4.90;;;28.50;45.60;;;;;;5036621;28;20017;-85
2021/08/15 11:29:46;;;;;;;10.38;4.57;;;28.70;46.20;;;;;;5035943;28;20093;-85
2021/08/15 11:32:23;;;;;;;5.60;4.45;;;28.80;46.50;;;;;;5035774;28;20479;-84
2021/08/15 11:35:01;;;;;;;6.55;4.25;;;28.90;45.40;;;;;;5039544;28;20055;-87
2021/08/15 11:37:36;;;;;;;10.23;5.13;;;28.90;45.40;;;;;;5020358;28;20459;-85
2021/08/15 11:40:20;;;;;;;8.43;5.05;;;28.60;45.70;;;;;;5041087;28;20083;-83
2021/08/15 11:43:12;;;;;;;8.30;5.10;;;28.40;45.90;;;;;;5035417;28;20056;-84
2021/08/15 11:45:43;;;;;;;12.82;6.18;;;28.30;46.10;;;;;;5028315;28;20021;-83
2021/08/15 11:48:17;;;;;;;7.93;5.38;;;28.00;46.10;;;;;;5025058;28;20340;-82
2021/08/15 11:50:45;;;;;;;5.15;4.60;;;27.90;46.60;;;;;;5034369;28;20033;-82
2021/08/15 11:53:16;;;;;;;;;;;27.90;46.60;;;;;;5029740;28;20061;-83
2021/08/15 11:55:42;;;;;;;5.55;4.88;;;27.90;46.10;;;;;;5031500;28;19905;-84
2021/08/15 11:58:11;;;;;;;9.25;5.03;;;27.80;46.80;;;;;;5035362;28;20026;-85
2021/08/15 12:00:37;;;;;;;6.45;5.43;;;27.70;47.80;;;;;;5029463;28;20013;-85
2021/08/15 12:03:21;;;;;;;8.35;6.28;;;27.70;47.50;;;;;;5028731;28;20057;-86
2021/08/15 12:05:56;;;;;;;7.10;5.60;;;27.50;47.90;;;;;;5030134;28;20085;-87
2021/08/15 12:08:35;;;;;;;10.38;5.72;;;27.60;48.10;;;;;;5037203;28;20483;-86
2021/08/15 12:11:02;;;;;;;9.10;5.57;;;27.90;47.90;;;;;;5035323;28;20038;-88
2021/08/15 12:13:39;;;;;;;6.30;5.25;;;27.90;47.40;;;;;;5047512;28;20425;-87
2021/08/15 12:16:05;;;;;;;5.65;4.97;;;27.80;47.20;;;;;;5032611;28;20141;-86
2021/08/15 12:18:47;;;;;;;10.05;5.10;;;27.90;47.10;;;;;;5035500;28;20024;-85
2021/08/15 12:21:16;;;;;;;6.43;4.90;;;28.00;48.10;;;;;;5037812;28;20064;-86
2021/08/15 12:24:10;;;;;;;7.38;5.65;;;28.00;47.00;;;;;;5040067;28;20037;-85
2021/08/15 12:26:55;;;;;;;6.43;5.80;;;27.90;47.10;;;;;;5028695;28;20432;-87
2021/08/15 12:29:30;;;;;;;7.05;5.78;;;27.80;47.50;;;;;;5035566;28;20031;-88
2021/08/15 12:32:08;;;;;;;8.80;5.80;;;27.60;47.40;;;;;;5023212;28;20085;-86
2021/08/15 12:34:52;;;;;;;8.32;5.63;;;27.60;47.60;;;;;;5031486;28;20022;-86
2021/08/15 12:37:21;;;;;;;7.45;5.70;;;27.60;48.40;;;;;;5036070;28;20030;-84
2021/08/15 12:40:01;;;;;;;7.47;6.10;;;27.70;47.90;;;;;;5033736;28;20029;-83
2021/08/15 12:42:28;;;;;;;8.40;6.03;;;27.70;48.00;;;;;;5012490;28;20018;-82
2021/08/15 12:44:58;;;;;;;6.60;5.15;;;27.60;48.50;;;;;;5030448;28;20363;-81
2021/08/15 12:47:30;;;;;;;10.75;5.47;;;27.60;47.60;;;;;;5033226;28;20034;-80
2021/08/15 12:50:23;;;;;;;7.93;5.82;;;27.40;48.00;;;;;;5033601;28;20037;-82
2021/08/15 12:52:52;;;;;;;6.88;4.78;;;27.30;48.60;;;;;;5018219;28;20394;-87
2021/08/15 12:55:36;;;;;;;7.68;5.50;;;27.30;48.50;;;;;;5033781;28;20026;-83